Tucumcari Municipal Airport
KTCC : rendu visible

Aérodrome :











RETROUVEZ-NOUS SUR...

 
LOGIN :

S'inscrire | Disclaimer

   EN    FR    IT 

 









Légende :    VFR   VFR Marginal   IFR   IFR Intensif   IFR Très Intensif
Visi : 
Plafond : 
>= 8 km
>= 3000ft
5 à 8 km
1000 à 3000 ft
1500m à 5 km
500 à 1000 ft
800 à 1500m
200 à 500 ft
< 800m
< 200 ft
Symboles :   Orages  Brouillard  Fortes neiges  Fortes précipitations  Vent > 20 kt






- Altitude de l'aérodrome : 4065 ft


KTCC - Tucumcari Municipal

DERNIER METAR :
  • 081253Z AUTO 27009KT 10SM CLR 09/M05 A2999 RMK AO2 SLP113 T00891050

METARs EXPIRÉS :
  • 081153Z AUTO 30007KT 10SM CLR 11/M06 A2997 RMK AO2 SLP098 T01111061 10139 20094 53007
  • 081053Z AUTO 29013KT 10SM CLR 12/M06 A2994 RMK AO2 SLP087 T01221061
  • 080953Z AUTO 29011KT 10SM CLR 12/M06 A2994 RMK AO2 SLP085 T01221061

TAF KTCC
Valide du 08 à 12h jusqu'au 09 à 12h UTC


081133Z 0812/0912 29010KT P6SM SKC
FM081700 03008KT P6SM SKC
FM082300 08008KT P6SM SKC
FM090400 13006KT P6SM FEW120 SCT250



MET'MAP, la Météo Aéronautique d'un coup d'oeil ! - Copyright ORBIFLY Décembre 2007 - Disclaimer

ORBIFLY MET'MAP TEAM :

Programmation & Développement : Alexandra Zaïnal
Sur une idée originale de : Baudouin d'Aumeries
Assistance à la programmation : Marc-Olivier Méhu
Soutien technique & logistique : Manuel Goepfert

Contact : metmap@orbifly.com




SOURCES & CREDITS :

   NOAA       Earth
Advisory